createdAt,value
2023-05-05T00:00:37.764Z,92.21
2023-05-05T00:03:41.649Z,92.00
2023-05-05T00:06:44.289Z,93.58
2023-05-05T00:09:47.129Z,94.44
2023-05-05T00:12:50.049Z,94.80
2023-05-05T00:15:53.706Z,96.36
2023-05-05T00:18:56.493Z,95.51
2023-05-05T00:21:59.339Z,95.26
2023-05-05T00:25:01.917Z,96.33
2023-05-05T00:28:05.056Z,98.69
2023-05-05T00:31:07.770Z,99.54
2023-05-05T00:34:11.101Z,100.00
2023-05-05T00:37:14.623Z,99.48
2023-05-05T00:40:18.735Z,99.81
2023-05-05T00:43:21.314Z,99.96
2023-05-05T00:46:26.471Z,100.00
2023-05-05T00:49:29.673Z,100.00
2023-05-05T00:52:32.719Z,100.00
2023-05-05T00:55:35.519Z,100.00
2023-05-05T00:58:42.026Z,100.00
2023-05-05T01:01:45.769Z,100.00
2023-05-05T01:04:48.944Z,100.00
2023-05-05T01:08:10.027Z,100.00
2023-05-05T01:11:44.455Z,100.00
2023-05-05T01:15:07.460Z,100.00
2023-05-05T01:18:23.387Z,100.00
2023-05-05T01:21:33.694Z,100.00
2023-05-05T01:24:45.630Z,100.00
2023-05-05T01:27:52.234Z,100.00
2023-05-05T01:31:01.433Z,100.00
2023-05-05T01:34:07.673Z,100.00
2023-05-05T01:37:18.268Z,100.00
2023-05-05T01:40:26.806Z,100.00
2023-05-05T01:43:33.645Z,100.00
2023-05-05T01:46:37.015Z,100.00
2023-05-05T01:49:42.140Z,100.00
2023-05-05T01:52:46.669Z,100.00
2023-05-05T01:55:50.600Z,100.00
2023-05-05T01:58:55.923Z,100.00
2023-05-05T02:02:02.835Z,100.00
2023-05-05T02:05:06.949Z,100.00
2023-05-05T02:08:11.491Z,100.00
2023-05-05T02:11:16.411Z,100.00
2023-05-05T02:14:21.571Z,100.00
2023-05-05T02:17:26.072Z,100.00
2023-05-05T02:20:31.864Z,100.00
2023-05-05T02:23:36.325Z,100.00
2023-05-05T02:26:40.727Z,100.00
2023-05-05T02:29:54.264Z,100.00
2023-05-05T02:33:05.648Z,100.00
2023-05-05T02:36:17.463Z,100.00
2023-05-05T02:39:30.708Z,100.00
2023-05-05T02:42:40.971Z,100.00
2023-05-05T02:45:45.171Z,100.00
2023-05-05T02:48:48.668Z,100.00
2023-05-05T02:51:51.520Z,100.00
2023-05-05T02:54:54.913Z,100.00
2023-05-05T02:58:05.298Z,100.00
2023-05-05T03:01:17.091Z,100.00
2023-05-05T03:04:31.957Z,100.00
2023-05-05T03:07:40.671Z,100.00
2023-05-05T03:10:48.161Z,100.00
2023-05-05T03:14:01.133Z,100.00
2023-05-05T03:17:05.463Z,100.00
2023-05-05T03:20:11.164Z,100.00
2023-05-05T03:23:14.758Z,100.00
2023-05-05T03:26:18.719Z,100.00
2023-05-05T03:29:22.230Z,100.00
2023-05-05T03:32:25.927Z,100.00
2023-05-05T03:35:28.852Z,100.00
2023-05-05T03:38:31.915Z,100.00
2023-05-05T03:41:34.596Z,100.00
2023-05-05T03:44:38.239Z,100.00
2023-05-05T03:47:41.108Z,100.00
2023-05-05T03:50:46.858Z,100.00
2023-05-05T03:53:49.918Z,100.00
2023-05-05T03:56:52.738Z,100.00
2023-05-05T03:59:55.660Z,100.00
2023-05-05T04:02:58.641Z,100.00
2023-05-05T04:06:01.739Z,100.00
2023-05-05T04:09:05.720Z,100.00
2023-05-05T04:12:08.891Z,100.00
2023-05-05T04:15:11.773Z,100.00
2023-05-05T04:18:15.747Z,100.00
2023-05-05T04:21:18.600Z,100.00
2023-05-05T04:24:24.775Z,100.00
2023-05-05T04:27:30.015Z,100.00
2023-05-05T04:30:33.278Z,100.00
2023-05-05T04:33:36.031Z,100.00
2023-05-05T04:36:39.141Z,100.00
2023-05-05T04:39:42.065Z,100.00
2023-05-05T04:42:45.053Z,100.00
2023-05-05T04:45:54.998Z,100.00
2023-05-05T04:48:59.171Z,100.00
2023-05-05T04:52:01.985Z,100.00
2023-05-05T04:55:05.477Z,100.00
2023-05-05T04:58:08.881Z,100.00
2023-05-05T05:01:11.758Z,100.00
2023-05-05T05:04:18.363Z,100.00
2023-05-05T05:07:21.303Z,100.00
2023-05-05T05:10:23.805Z,100.00
2023-05-05T05:13:26.725Z,100.00
2023-05-05T05:16:29.292Z,100.00
2023-05-05T05:19:32.505Z,100.00
2023-05-05T05:22:38.315Z,100.00
2023-05-05T05:25:42.560Z,100.00
2023-05-05T05:28:45.175Z,100.00
2023-05-05T05:31:48.279Z,100.00
2023-05-05T05:34:51.050Z,100.00
2023-05-05T05:37:53.855Z,100.00
2023-05-05T05:40:56.547Z,100.00
2023-05-05T05:44:00.044Z,100.00
2023-05-05T05:47:03.780Z,100.00
2023-05-05T05:50:07.850Z,100.00
2023-05-05T05:53:11.211Z,100.00
2023-05-05T05:56:14.186Z,100.00
2023-05-05T05:59:16.890Z,100.00
2023-05-05T06:02:21.006Z,100.00
2023-05-05T06:05:24.014Z,100.00
2023-05-05T06:08:26.963Z,99.75
2023-05-05T06:11:30.215Z,97.45
2023-05-05T06:14:32.906Z,96.75
2023-05-05T06:17:35.857Z,95.35
2023-05-05T06:20:38.509Z,85.69
2023-05-05T06:23:42.289Z,87.26
2023-05-05T06:26:45.001Z,87.10
2023-05-05T06:29:47.930Z,87.75
2023-05-05T06:32:50.508Z,84.93
2023-05-05T06:35:53.388Z,77.42
2023-05-05T06:38:56.207Z,74.93
2023-05-05T06:41:59.077Z,71.30
2023-05-05T06:45:02.329Z,70.24
2023-05-05T06:48:05.506Z,68.82
2023-05-05T06:51:09.630Z,66.88
2023-05-05T06:54:12.423Z,67.04
2023-05-05T06:57:14.972Z,63.47
2023-05-05T07:00:18.711Z,67.05
2023-05-05T07:03:21.669Z,64.11
2023-05-05T07:06:24.551Z,61.95
2023-05-05T07:09:27.506Z,59.90
2023-05-05T07:12:33.406Z,57.05
2023-05-05T07:15:36.128Z,54.49
2023-05-05T07:18:39.195Z,51.22
2023-05-05T07:21:41.873Z,49.70
2023-05-05T07:24:45.501Z,46.90
2023-05-05T07:27:48.213Z,46.04
2023-05-05T07:30:52.070Z,44.54
2023-05-05T07:33:54.902Z,45.15
2023-05-05T07:36:57.838Z,44.64
2023-05-05T07:40:00.951Z,45.98
2023-05-05T07:43:04.790Z,43.62
2023-05-05T07:46:07.927Z,43.36
2023-05-05T07:49:11.073Z,41.15
2023-05-05T07:52:13.837Z,41.24
2023-05-05T07:55:16.941Z,40.73
2023-05-05T07:58:19.420Z,38.34
2023-05-05T08:01:22.682Z,37.88
2023-05-05T08:04:25.609Z,37.85
2023-05-05T08:07:28.352Z,37.63
2023-05-05T08:10:31.143Z,39.03
2023-05-05T08:13:34.606Z,36.92
2023-05-05T08:16:37.591Z,34.80
2023-05-05T08:19:40.865Z,34.88
2023-05-05T08:22:43.955Z,33.41
2023-05-05T08:25:46.593Z,32.99
2023-05-05T08:28:49.785Z,34.04
2023-05-05T08:31:52.395Z,33.79
2023-05-05T08:34:55.434Z,33.16
2023-05-05T08:37:59.218Z,33.44
2023-05-05T08:41:02.571Z,33.79
2023-05-05T08:44:05.282Z,32.89
2023-05-05T08:47:11.379Z,31.22
2023-05-05T08:50:14.387Z,32.76
2023-05-05T08:53:21.956Z,32.65
2023-05-05T08:56:37.270Z,37.59
2023-05-05T08:59:41.481Z,34.39
2023-05-05T09:02:46.073Z,32.87
2023-05-05T09:05:49.061Z,32.40
2023-05-05T09:08:51.897Z,31.02
2023-05-05T09:11:57.500Z,29.05
2023-05-05T09:15:03.633Z,29.64
2023-05-05T09:18:12.007Z,31.04
2023-05-05T09:21:22.213Z,28.34
2023-05-05T09:24:25.588Z,28.01
2023-05-05T09:27:28.397Z,28.50
2023-05-05T09:30:31.454Z,31.64
2023-05-05T09:33:34.178Z,29.34
2023-05-05T09:36:48.076Z,28.62
2023-05-05T09:39:55.534Z,28.20
2023-05-05T09:43:02.572Z,26.27
2023-05-05T09:46:07.510Z,27.80
2023-05-05T09:49:18.219Z,30.53
2023-05-05T09:52:24.801Z,31.01
2023-05-05T09:55:33.767Z,26.24
2023-05-05T09:58:36.648Z,27.91
2023-05-05T10:01:39.771Z,28.59
2023-05-05T10:04:42.898Z,29.97
2023-05-05T10:07:47.852Z,27.51
2023-05-05T10:10:53.903Z,27.92
2023-05-05T10:13:57.879Z,26.34
2023-05-05T10:17:01.714Z,24.87
2023-05-05T10:20:07.590Z,27.94
2023-05-05T10:23:15.359Z,27.79
2023-05-05T10:26:20.312Z,26.62
2023-05-05T10:29:47.110Z,23.77
2023-05-05T10:33:30.175Z,25.41
2023-05-05T10:36:34.666Z,23.20
2023-05-05T10:39:38.215Z,22.40
2023-05-05T10:42:41.821Z,21.62
2023-05-05T10:45:47.567Z,22.75
2023-05-05T10:49:14.890Z,23.63
2023-05-05T10:52:28.581Z,23.52
2023-05-05T10:56:08.768Z,22.72
2023-05-05T10:59:37.954Z,23.25
2023-05-05T11:02:42.048Z,22.14
2023-05-05T11:06:06.169Z,24.16
2023-05-05T11:09:28.614Z,22.93
2023-05-05T11:12:32.948Z,21.23
2023-05-05T11:15:38.002Z,22.97
2023-05-05T11:18:44.486Z,21.15
2023-05-05T11:22:01.864Z,20.90
2023-05-05T11:25:36.142Z,22.31
2023-05-05T11:28:56.558Z,21.68
2023-05-05T11:32:15.998Z,20.23
2023-05-05T11:35:18.956Z,21.13
2023-05-05T11:38:45.399Z,21.28
2023-05-05T11:42:08.118Z,20.77
2023-05-05T11:45:24.267Z,21.37
2023-05-05T11:48:27.936Z,23.02
2023-05-05T11:51:31.395Z,22.41
2023-05-05T11:54:49.099Z,21.37
2023-05-05T11:57:52.105Z,21.41
2023-05-05T12:00:55.280Z,20.16
2023-05-05T12:04:00.938Z,20.65
2023-05-05T12:07:03.821Z,21.05
2023-05-05T12:10:07.303Z,18.29
2023-05-05T12:13:19.610Z,19.71
2023-05-05T12:16:22.725Z,21.18
2023-05-05T12:19:30.120Z,18.43
2023-05-05T12:22:33.079Z,19.83
2023-05-05T12:25:38.087Z,19.11
2023-05-05T12:28:46.591Z,19.01
2023-05-05T12:31:49.322Z,18.57
2023-05-05T12:34:54.498Z,17.57
2023-05-05T12:37:58.368Z,19.32
2023-05-05T12:41:01.198Z,19.78
2023-05-05T12:44:04.376Z,19.53
2023-05-05T12:47:07.509Z,19.99
2023-05-05T12:50:10.564Z,18.80
2023-05-05T12:53:21.938Z,19.78
2023-05-05T12:56:31.335Z,20.26
2023-05-05T12:59:34.948Z,18.52
2023-05-05T13:02:37.537Z,18.55
2023-05-05T13:05:41.215Z,17.90
2023-05-05T13:08:43.967Z,17.89
2023-05-05T13:11:47.080Z,17.88
2023-05-05T13:14:49.885Z,20.52
2023-05-05T13:18:02.781Z,20.77
2023-05-05T13:21:05.546Z,22.27
2023-05-05T13:24:23.701Z,21.49
2023-05-05T13:27:31.481Z,22.38
2023-05-05T13:30:34.353Z,24.03
2023-05-05T13:33:36.972Z,22.55
2023-05-05T13:36:39.865Z,21.54
2023-05-05T13:39:42.793Z,19.22
2023-05-05T13:42:46.261Z,18.42
2023-05-05T13:45:48.934Z,16.48
2023-05-05T13:48:56.038Z,16.89
2023-05-05T13:51:59.360Z,18.77
2023-05-05T13:55:02.778Z,17.01
2023-05-05T13:58:05.401Z,16.82
2023-05-05T14:01:08.325Z,17.41
2023-05-05T14:04:11.460Z,15.91
2023-05-05T14:07:14.125Z,16.56
2023-05-05T14:10:16.878Z,17.94
2023-05-05T14:13:19.518Z,21.11
2023-05-05T14:16:22.716Z,17.23
2023-05-05T14:19:28.393Z,16.50
2023-05-05T14:22:33.258Z,16.26
2023-05-05T14:25:36.142Z,18.56
2023-05-05T14:28:39.126Z,22.54
2023-05-05T14:31:41.871Z,24.51
2023-05-05T14:34:45.286Z,27.63
2023-05-05T14:37:48.099Z,28.46
2023-05-05T14:40:51.150Z,30.38
2023-05-05T14:43:53.875Z,28.80
2023-05-05T14:46:57.301Z,30.37
2023-05-05T14:50:00.257Z,30.50
2023-05-05T14:53:03.324Z,30.48
2023-05-05T14:56:06.932Z,29.70
2023-05-05T14:59:10.185Z,29.65
2023-05-05T15:02:16.174Z,29.49
2023-05-05T15:05:19.188Z,25.44
2023-05-05T15:08:22.149Z,25.70
2023-05-05T15:11:25.065Z,26.76
2023-05-05T15:14:30.135Z,29.29
2023-05-05T15:17:37.692Z,29.31
2023-05-05T15:20:40.368Z,26.17
2023-05-05T15:23:43.460Z,23.25
2023-05-05T15:26:46.198Z,23.99
2023-05-05T15:29:49.395Z,27.34
2023-05-05T15:32:52.090Z,29.62
2023-05-05T15:35:54.946Z,30.50
2023-05-05T15:38:57.460Z,32.06
2023-05-05T15:42:03.674Z,32.90
2023-05-05T15:45:08.204Z,31.85
2023-05-05T15:48:11.138Z,32.71
2023-05-05T15:51:13.881Z,32.43
2023-05-05T15:54:16.964Z,32.57
2023-05-05T15:57:19.552Z,33.29
2023-05-05T16:00:22.791Z,32.25
2023-05-05T16:03:25.656Z,32.45
2023-05-05T16:06:28.450Z,31.16
2023-05-05T16:09:31.567Z,30.55
2023-05-05T16:12:34.112Z,28.67
2023-05-05T16:15:36.972Z,26.60
2023-05-05T16:18:39.870Z,26.74
2023-05-05T16:21:43.165Z,27.26
2023-05-05T16:24:45.905Z,25.26
2023-05-05T16:27:48.837Z,25.70
2023-05-05T16:30:51.455Z,26.08
2023-05-05T16:33:54.271Z,26.45
2023-05-05T16:36:56.895Z,25.77
2023-05-05T16:40:01.342Z,24.63
2023-05-05T16:43:04.359Z,25.90
2023-05-05T16:46:07.323Z,25.98
2023-05-05T16:49:10.056Z,29.41
2023-05-05T16:52:13.248Z,33.28
2023-05-05T16:55:15.977Z,35.11
2023-05-05T16:58:28.199Z,36.64
2023-05-05T17:01:32.712Z,38.63
2023-05-05T17:04:35.879Z,38.92
2023-05-05T17:07:38.450Z,39.36
2023-05-05T17:10:42.371Z,40.15
2023-05-05T17:13:44.894Z,42.66
2023-05-05T17:16:47.742Z,42.68
2023-05-05T17:19:50.295Z,43.80
2023-05-05T17:22:53.173Z,44.04
2023-05-05T17:25:55.792Z,43.68
2023-05-05T17:28:58.643Z,45.35
2023-05-05T17:32:01.577Z,44.93
2023-05-05T17:35:04.696Z,46.16
2023-05-05T17:38:07.292Z,47.33
2023-05-05T17:41:10.220Z,47.12
2023-05-05T17:44:13.119Z,48.30
2023-05-05T17:47:15.974Z,47.79
2023-05-05T17:50:18.852Z,48.10
2023-05-05T17:53:22.465Z,47.65
2023-05-05T17:56:25.792Z,48.06
2023-05-05T17:59:28.711Z,48.49
2023-05-05T18:02:31.525Z,48.66
2023-05-05T18:05:35.309Z,47.63
2023-05-05T18:08:38.276Z,48.03
2023-05-05T18:11:42.183Z,48.07
2023-05-05T18:14:44.807Z,48.84
2023-05-05T18:17:47.613Z,50.82
2023-05-05T18:20:50.166Z,49.72
2023-05-05T18:23:57.328Z,48.86
2023-05-05T18:27:07.496Z,49.20
2023-05-05T18:30:11.058Z,49.41
2023-05-05T18:33:13.640Z,50.14
2023-05-05T18:36:16.651Z,51.65
2023-05-05T18:39:19.216Z,52.18
2023-05-05T18:42:22.539Z,51.16
2023-05-05T18:45:25.309Z,53.42
2023-05-05T18:48:29.235Z,54.57
2023-05-05T18:51:32.350Z,55.11
2023-05-05T18:54:37.478Z,55.93
2023-05-05T18:57:43.441Z,58.12
2023-05-05T19:00:46.361Z,58.58
2023-05-05T19:03:49.814Z,61.63
2023-05-05T19:06:52.846Z,61.73
2023-05-05T19:09:55.545Z,63.73
2023-05-05T19:12:59.119Z,65.47
2023-05-05T19:16:02.567Z,67.39
2023-05-05T19:19:05.588Z,68.70
2023-05-05T19:22:08.133Z,70.17
2023-05-05T19:25:11.434Z,71.07
2023-05-05T19:28:14.327Z,72.08
2023-05-05T19:31:17.126Z,76.80
2023-05-05T19:34:20.121Z,77.26
2023-05-05T19:37:23.650Z,77.55
2023-05-05T19:40:26.128Z,77.98
2023-05-05T19:43:29.198Z,78.05
2023-05-05T19:46:32.195Z,80.88
2023-05-05T19:49:36.236Z,80.41
2023-05-05T19:52:41.328Z,83.37
2023-05-05T19:55:44.479Z,83.10
2023-05-05T19:59:00.771Z,84.28
2023-05-05T20:02:03.931Z,85.75
2023-05-05T20:05:07.093Z,86.71
2023-05-05T20:08:09.649Z,86.35
2023-05-05T20:11:14.494Z,86.79
2023-05-05T20:14:17.141Z,87.83
2023-05-05T20:17:21.410Z,88.01
2023-05-05T20:20:25.417Z,89.35
2023-05-05T20:23:29.007Z,92.19
2023-05-05T20:26:31.857Z,92.80
2023-05-05T20:29:34.724Z,95.88
2023-05-05T20:32:37.306Z,96.22
2023-05-05T20:35:40.399Z,96.89
2023-05-05T20:38:43.533Z,98.93
2023-05-05T20:41:46.694Z,100.00
2023-05-05T20:44:49.600Z,100.00
2023-05-05T20:47:52.468Z,100.00
2023-05-05T20:50:55.516Z,100.00
2023-05-05T20:53:59.217Z,100.00
2023-05-05T20:57:06.859Z,100.00
2023-05-05T21:00:10.420Z,100.00
2023-05-05T21:03:13.626Z,100.00
2023-05-05T21:06:17.283Z,100.00
2023-05-05T21:09:21.538Z,100.00
2023-05-05T21:12:24.383Z,100.00
2023-05-05T21:15:27.197Z,100.00
2023-05-05T21:18:30.118Z,100.00
2023-05-05T21:21:33.056Z,100.00
2023-05-05T21:24:38.388Z,100.00
2023-05-05T21:27:41.229Z,100.00
2023-05-05T21:30:45.276Z,100.00
2023-05-05T21:33:50.930Z,100.00
2023-05-05T21:36:53.696Z,100.00
2023-05-05T21:39:56.267Z,100.00
2023-05-05T21:42:59.184Z,100.00
2023-05-05T21:46:05.684Z,100.00
2023-05-05T21:49:13.905Z,100.00
2023-05-05T21:52:17.101Z,100.00
2023-05-05T21:55:20.150Z,100.00
2023-05-05T21:58:24.767Z,100.00
2023-05-05T22:01:28.308Z,100.00
2023-05-05T22:04:31.272Z,100.00
2023-05-05T22:07:33.849Z,100.00
2023-05-05T22:10:36.701Z,100.00
2023-05-05T22:13:39.529Z,100.00
2023-05-05T22:16:42.795Z,100.00
2023-05-05T22:19:45.541Z,100.00
2023-05-05T22:22:48.455Z,100.00
2023-05-05T22:25:50.928Z,100.00
2023-05-05T22:28:53.664Z,100.00
2023-05-05T22:31:56.352Z,100.00
2023-05-05T22:34:59.583Z,100.00
2023-05-05T22:38:02.117Z,100.00
2023-05-05T22:41:06.552Z,100.00
2023-05-05T22:44:09.119Z,100.00
2023-05-05T22:47:13.198Z,100.00
2023-05-05T22:50:15.969Z,100.00
2023-05-05T22:53:19.092Z,100.00
2023-05-05T22:56:21.737Z,100.00
2023-05-05T22:59:25.137Z,100.00
2023-05-05T23:02:28.277Z,100.00
2023-05-05T23:05:31.397Z,100.00
2023-05-05T23:08:33.924Z,100.00
2023-05-05T23:11:37.020Z,100.00
2023-05-05T23:14:39.709Z,100.00
2023-05-05T23:17:42.541Z,100.00
2023-05-05T23:20:45.109Z,100.00
2023-05-05T23:23:48.567Z,100.00
2023-05-05T23:26:51.999Z,100.00
2023-05-05T23:29:54.782Z,100.00
2023-05-05T23:32:57.964Z,100.00
2023-05-05T23:36:01.022Z,100.00
2023-05-05T23:39:03.866Z,100.00
2023-05-05T23:42:06.704Z,100.00
2023-05-05T23:45:10.164Z,100.00
2023-05-05T23:48:13.331Z,100.00
2023-05-05T23:51:16.123Z,100.00
2023-05-05T23:54:18.892Z,100.00
2023-05-05T23:57:22.131Z,100.00
